createdAt,value
2022-07-26T00:01:50.741Z,1.17
2022-07-26T00:04:19.071Z,0.80
2022-07-26T00:06:47.379Z,0.80
2022-07-26T00:09:15.670Z,1.10
2022-07-26T00:11:43.896Z,0.93
2022-07-26T00:14:12.332Z,0.73
2022-07-26T00:16:40.987Z,1.17
2022-07-26T00:19:09.756Z,0.77
2022-07-26T00:21:40.892Z,1.58
2022-07-26T00:24:09.562Z,0.70
2022-07-26T00:26:38.152Z,1.15
2022-07-26T00:29:06.944Z,1.65
2022-07-26T00:31:35.392Z,1.00
2022-07-26T00:34:03.691Z,1.20
2022-07-26T00:36:32.628Z,1.17
2022-07-26T00:39:01.012Z,0.80
2022-07-26T00:41:29.243Z,1.10
2022-07-26T00:43:59.927Z,1.08
2022-07-26T00:49:02.184Z,1.55
2022-07-26T00:51:31.495Z,0.80
2022-07-26T00:53:59.779Z,0.75
2022-07-26T00:56:28.145Z,1.10
2022-07-26T00:58:56.576Z,1.15
2022-07-26T01:01:24.557Z,1.10
2022-07-26T01:03:54.387Z,1.20
2022-07-26T01:06:27.084Z,1.17
2022-07-26T01:08:56.244Z,1.00
2022-07-26T01:11:24.547Z,1.10
2022-07-26T01:13:52.772Z,0.82
2022-07-26T01:16:21.121Z,1.27
2022-07-26T01:18:49.359Z,0.85
2022-07-26T01:21:17.929Z,0.95
2022-07-26T01:23:46.735Z,1.00
2022-07-26T01:26:14.944Z,0.73
2022-07-26T01:28:44.745Z,1.25
2022-07-26T01:31:13.146Z,2.10
2022-07-26T01:33:41.588Z,1.08
2022-07-26T01:36:10.153Z,1.27
2022-07-26T01:38:39.933Z,0.93
2022-07-26T01:41:08.725Z,1.20
2022-07-26T01:43:37.368Z,1.38
2022-07-26T02:00:31.764Z,1.45
2022-07-26T02:03:00.876Z,1.30
2022-07-26T02:05:29.266Z,1.20
2022-07-26T02:07:57.603Z,1.00
2022-07-26T02:10:46.161Z,1.67
2022-07-26T02:13:15.872Z,1.20
2022-07-26T02:15:44.256Z,1.17
2022-07-26T02:18:12.522Z,1.58
2022-07-26T02:20:40.849Z,1.20
2022-07-26T02:23:09.425Z,1.20
2022-07-26T02:25:39.757Z,1.00
2022-07-26T02:28:07.998Z,1.10
2022-07-26T02:30:36.447Z,1.17
2022-07-26T02:33:05.195Z,1.33
2022-07-26T02:35:33.524Z,1.50
2022-07-26T02:38:07.436Z,1.23
2022-07-26T02:40:37.199Z,1.02
2022-07-26T02:43:08.450Z,1.15
2022-07-26T02:45:37.179Z,1.17
2022-07-26T02:48:08.389Z,1.27
2022-07-26T02:50:36.940Z,1.88
2022-07-26T02:53:05.270Z,1.45
2022-07-26T02:55:33.489Z,1.20
2022-07-26T02:58:01.694Z,1.67
2022-07-26T03:00:31.104Z,1.35
2022-07-26T03:03:00.878Z,1.10
2022-07-26T03:05:29.504Z,1.35
2022-07-26T03:07:57.724Z,1.55
2022-07-26T03:10:25.992Z,1.77
2022-07-26T03:12:54.283Z,1.17
2022-07-26T03:15:22.640Z,1.25
2022-07-26T03:17:55.392Z,1.25
2022-07-26T03:20:25.072Z,1.23
2022-07-26T03:22:53.287Z,1.63
2022-07-26T03:25:21.893Z,1.30
2022-07-26T03:27:50.112Z,1.30
2022-07-26T03:30:24.808Z,0.93
2022-07-26T03:32:55.038Z,1.65
2022-07-26T03:35:23.354Z,1.20
2022-07-26T03:37:52.097Z,1.20
2022-07-26T03:40:20.816Z,1.52
2022-07-26T03:42:49.526Z,1.67
2022-07-26T03:45:18.160Z,1.58
2022-07-26T03:47:46.583Z,1.80
2022-07-26T03:50:14.809Z,1.40
2022-07-26T03:52:44.124Z,1.40
2022-07-26T03:55:30.970Z,1.50
2022-07-26T03:58:00.240Z,2.15
2022-07-26T04:00:29.825Z,1.50
2022-07-26T04:03:00.298Z,1.35
2022-07-26T04:05:28.623Z,1.50
2022-07-26T04:07:59.635Z,1.48
2022-07-26T04:10:28.503Z,1.48
2022-07-26T04:12:56.735Z,1.60
2022-07-26T04:15:24.975Z,1.40
2022-07-26T04:17:53.825Z,1.38
2022-07-26T04:20:22.140Z,1.60
2022-07-26T04:22:50.427Z,1.50
2022-07-26T04:25:18.854Z,1.65
2022-07-26T04:27:47.195Z,1.30
2022-07-26T04:30:15.974Z,1.38
2022-07-26T04:32:46.424Z,1.45
2022-07-26T04:35:16.118Z,1.38
2022-07-26T04:37:45.926Z,1.30
2022-07-26T04:40:21.674Z,1.58
2022-07-26T04:42:52.747Z,1.60
2022-07-26T04:45:21.491Z,1.50
2022-07-26T04:47:50.567Z,1.17
2022-07-26T04:50:21.379Z,1.60
2022-07-26T04:55:18.995Z,1.27
2022-07-26T04:57:48.469Z,1.63
2022-07-26T05:00:26.385Z,1.98
2022-07-26T05:02:58.381Z,1.42
2022-07-26T05:05:31.149Z,1.70
2022-07-26T05:08:03.396Z,1.83
2022-07-26T05:10:37.975Z,1.58
2022-07-26T05:13:07.717Z,1.63
2022-07-26T05:15:36.910Z,1.38
2022-07-26T05:18:08.880Z,1.45
2022-07-26T05:20:39.363Z,1.60
2022-07-26T05:23:22.405Z,1.33
2022-07-26T05:25:50.826Z,1.35
2022-07-26T05:28:19.372Z,1.70
2022-07-26T05:30:47.883Z,1.08
2022-07-26T05:33:16.583Z,1.73
2022-07-26T05:35:45.102Z,1.67
2022-07-26T05:38:13.435Z,1.45
2022-07-26T05:40:41.327Z,2.20
2022-07-26T05:43:09.250Z,1.75
2022-07-26T05:45:37.423Z,2.00
2022-07-26T05:48:05.749Z,2.92
2022-07-26T05:50:34.081Z,1.50
2022-07-26T05:53:02.530Z,1.83
2022-07-26T05:55:30.393Z,1.73
2022-07-26T05:58:04.186Z,1.80
2022-07-26T06:00:32.640Z,2.03
2022-07-26T06:03:20.889Z,1.75
2022-07-26T06:05:55.369Z,1.67
2022-07-26T06:08:25.827Z,1.73
2022-07-26T06:10:55.072Z,1.80
2022-07-26T06:13:35.317Z,2.42
2022-07-26T06:16:03.790Z,2.33
2022-07-26T06:18:32.058Z,2.40
2022-07-26T06:21:02.473Z,2.00
2022-07-26T06:23:34.523Z,1.88
2022-07-26T06:26:05.116Z,1.73
2022-07-26T06:28:33.983Z,2.10
2022-07-26T06:31:02.533Z,1.80
2022-07-26T06:33:30.515Z,1.73
2022-07-26T06:35:58.767Z,2.13
2022-07-26T06:38:26.880Z,1.63
2022-07-26T06:40:55.347Z,1.80
2022-07-26T06:43:23.299Z,2.30
2022-07-26T06:45:51.813Z,2.10
2022-07-26T06:48:19.764Z,1.90
2022-07-26T06:50:47.840Z,1.60
2022-07-26T06:53:16.230Z,1.80
2022-07-26T06:55:44.147Z,2.65
2022-07-26T06:58:13.118Z,1.95
2022-07-26T07:00:41.411Z,1.95
2022-07-26T07:03:09.689Z,1.60
2022-07-26T07:05:37.933Z,1.90
2022-07-26T07:08:07.316Z,1.90
2022-07-26T07:10:52.886Z,1.75
2022-07-26T07:13:22.633Z,1.33
2022-07-26T07:15:50.777Z,1.45
2022-07-26T07:18:18.736Z,0.90
2022-07-26T07:20:47.097Z,1.52
2022-07-26T07:23:15.401Z,0.82
2022-07-26T07:25:44.906Z,0.85
2022-07-26T07:28:13.431Z,0.77
2022-07-26T07:30:41.418Z,0.80
2022-07-26T07:33:22.346Z,0.70
2022-07-26T07:35:52.339Z,0.73
2022-07-26T07:38:22.349Z,0.70
2022-07-26T07:40:51.124Z,0.73
2022-07-26T07:43:19.452Z,0.70
2022-07-26T07:45:48.287Z,0.82
2022-07-26T07:48:17.219Z,0.80
2022-07-26T07:50:58.470Z,0.80
2022-07-26T07:53:26.676Z,0.73
2022-07-26T07:55:55.298Z,0.70
2022-07-26T07:58:23.389Z,0.73
2022-07-26T08:00:51.854Z,0.88
2022-07-26T08:03:21.013Z,0.85
2022-07-26T08:05:50.742Z,0.75
2022-07-26T08:08:22.242Z,0.80
2022-07-26T08:10:52.899Z,1.02
2022-07-26T08:13:24.596Z,0.60
2022-07-26T08:15:55.856Z,0.88
2022-07-26T08:18:24.974Z,0.55
2022-07-26T08:20:54.062Z,0.63
2022-07-26T08:23:22.790Z,0.95
2022-07-26T08:26:03.189Z,0.77
2022-07-26T08:28:47.409Z,0.93
2022-07-26T08:31:18.153Z,0.65
2022-07-26T08:33:47.546Z,0.95
2022-07-26T08:36:17.089Z,1.20
2022-07-26T08:38:47.715Z,1.13
2022-07-26T08:41:18.711Z,0.70
2022-07-26T08:43:52.732Z,1.08
2022-07-26T08:46:27.478Z,0.70
2022-07-26T08:48:57.009Z,0.73
2022-07-26T08:51:26.937Z,0.90
2022-07-26T08:54:04.790Z,0.63
2022-07-26T08:56:48.970Z,0.88
2022-07-26T08:59:21.991Z,0.68
2022-07-26T09:02:04.821Z,1.08
2022-07-26T09:04:45.094Z,0.90
2022-07-26T09:07:19.135Z,0.60
2022-07-26T09:10:09.581Z,0.60
2022-07-26T09:12:38.794Z,0.60
2022-07-26T09:15:20.383Z,0.50
2022-07-26T09:17:58.027Z,0.68
2022-07-26T09:20:32.076Z,0.40
2022-07-26T09:23:13.913Z,0.57
2022-07-26T09:25:46.731Z,0.40
2022-07-26T09:28:30.964Z,0.70
2022-07-26T09:31:06.028Z,0.30
2022-07-26T09:33:50.333Z,0.50
2022-07-26T09:36:52.313Z,0.65
2022-07-26T09:39:33.347Z,0.80
2022-07-26T09:44:58.720Z,0.40
2022-07-26T09:47:40.657Z,0.70
2022-07-26T09:50:24.027Z,0.30
2022-07-26T09:53:22.739Z,0.60
2022-07-26T09:55:50.557Z,0.60
2022-07-26T09:58:19.073Z,0.57
2022-07-26T10:00:47.280Z,0.60
2022-07-26T10:03:15.417Z,0.50
2022-07-26T10:05:43.808Z,0.32
2022-07-26T10:08:12.959Z,0.30
2022-07-26T10:10:55.707Z,0.40
2022-07-26T10:13:24.523Z,0.43
2022-07-26T10:15:52.900Z,0.35
2022-07-26T10:18:40.615Z,0.60
2022-07-26T10:21:31.543Z,0.52
2022-07-26T10:24:04.554Z,0.57
2022-07-26T10:26:32.814Z,0.50
2022-07-26T10:29:25.774Z,0.70
2022-07-26T10:32:03.283Z,0.50
2022-07-26T10:34:40.217Z,0.60
2022-07-26T10:37:20.359Z,0.30
2022-07-26T10:39:48.363Z,0.50
2022-07-26T10:42:21.936Z,0.45
2022-07-26T10:44:50.320Z,0.40
2022-07-26T10:47:18.804Z,0.30
2022-07-26T10:49:58.143Z,0.30
2022-07-26T10:52:32.286Z,0.38
2022-07-26T10:55:00.498Z,0.50
2022-07-26T10:57:35.277Z,0.68
2022-07-26T11:00:24.435Z,0.22
2022-07-26T11:02:59.777Z,0.30
2022-07-26T11:05:35.179Z,0.50
2022-07-26T11:08:09.107Z,0.30
2022-07-26T11:10:46.037Z,0.30
2022-07-26T11:13:23.689Z,0.55
2022-07-26T11:16:05.423Z,0.32
2022-07-26T11:18:37.501Z,0.50
2022-07-26T11:21:17.986Z,0.30
2022-07-26T11:23:48.457Z,0.60
2022-07-26T11:26:23.601Z,0.47
2022-07-26T11:29:06.375Z,0.30
2022-07-26T11:31:50.770Z,0.60
2022-07-26T11:34:30.687Z,0.50
2022-07-26T11:37:04.220Z,0.45
2022-07-26T11:39:35.685Z,0.60
2022-07-26T11:42:05.277Z,0.57
2022-07-26T11:44:33.866Z,0.38
2022-07-26T11:47:19.971Z,0.35
2022-07-26T11:49:52.021Z,0.40
2022-07-26T11:52:25.512Z,0.47
2022-07-26T11:54:54.637Z,0.40
2022-07-26T11:57:32.059Z,0.68
2022-07-26T12:00:01.380Z,0.40
2022-07-26T12:02:39.463Z,0.40
2022-07-26T12:05:23.281Z,0.40
2022-07-26T12:08:05.398Z,0.35
2022-07-26T12:10:34.037Z,0.40
2022-07-26T12:13:14.521Z,0.30
2022-07-26T12:18:33.967Z,0.43
2022-07-26T12:21:46.758Z,0.40
2022-07-26T12:24:53.092Z,0.50
2022-07-26T12:27:32.652Z,0.80
2022-07-26T12:30:03.698Z,0.82
2022-07-26T12:32:42.027Z,0.77
2022-07-26T12:35:35.183Z,0.60
2022-07-26T12:38:13.165Z,0.60
2022-07-26T12:40:41.853Z,0.40
2022-07-26T12:43:10.256Z,0.73
2022-07-26T12:45:38.530Z,0.70
2022-07-26T12:48:12.538Z,0.60
2022-07-26T12:50:40.891Z,0.60
2022-07-26T12:53:09.226Z,0.93
2022-07-26T12:55:40.831Z,0.32
2022-07-26T12:58:09.120Z,0.50
2022-07-26T13:00:37.528Z,0.63
2022-07-26T13:03:05.774Z,0.50
2022-07-26T13:05:48.989Z,1.02
2022-07-26T13:08:17.377Z,0.60
2022-07-26T13:10:45.234Z,0.60
2022-07-26T13:13:13.827Z,0.60
2022-07-26T13:15:41.734Z,0.50
2022-07-26T13:18:10.102Z,0.90
2022-07-26T13:20:39.102Z,0.60
2022-07-26T13:23:13.760Z,0.50
2022-07-26T13:25:43.082Z,0.50
2022-07-26T13:28:11.520Z,0.38
2022-07-26T13:30:42.976Z,0.60
2022-07-26T13:33:11.804Z,0.50
2022-07-26T13:35:42.387Z,0.80
2022-07-26T13:40:44.569Z,0.70
2022-07-26T13:43:12.377Z,0.50
2022-07-26T13:45:41.364Z,0.60
2022-07-26T13:48:09.866Z,0.50
2022-07-26T13:50:37.708Z,0.63
2022-07-26T13:53:06.158Z,0.80
2022-07-26T13:55:34.014Z,0.70
2022-07-26T13:58:06.319Z,0.50
2022-07-26T14:00:39.405Z,0.65
2022-07-26T14:03:08.183Z,0.80
2022-07-26T14:05:36.070Z,0.65
2022-07-26T14:08:04.740Z,0.90
2022-07-26T14:10:57.651Z,0.70
2022-07-26T14:13:25.685Z,0.55
2022-07-26T14:15:54.092Z,0.88
2022-07-26T14:18:22.702Z,0.80
2022-07-26T14:20:50.579Z,0.60
2022-07-26T14:23:21.757Z,0.65
2022-07-26T14:25:49.785Z,0.70
2022-07-26T14:28:18.177Z,0.98
2022-07-26T14:31:02.363Z,0.40
2022-07-26T14:33:31.150Z,0.60
2022-07-26T14:35:59.413Z,0.80
2022-07-26T14:38:30.146Z,0.93
2022-07-26T14:40:58.675Z,0.60
2022-07-26T14:43:26.960Z,0.40
2022-07-26T14:45:55.898Z,0.50
2022-07-26T14:48:51.924Z,0.50
2022-07-26T14:51:12.783Z,0.60
2022-07-26T14:53:42.786Z,0.77
2022-07-26T14:56:11.297Z,0.73
2022-07-26T14:58:39.606Z,0.40
2022-07-26T15:01:07.964Z,0.50
2022-07-26T15:03:36.259Z,0.90
2022-07-26T15:06:04.665Z,0.65
2022-07-26T15:08:32.897Z,0.77
2022-07-26T15:11:00.864Z,0.80
2022-07-26T15:13:28.820Z,0.50
2022-07-26T15:15:57.201Z,0.70
2022-07-26T15:18:25.798Z,0.77
2022-07-26T15:20:55.274Z,0.63
2022-07-26T15:23:23.991Z,0.57
2022-07-26T15:25:52.358Z,0.47
2022-07-26T15:28:20.732Z,0.60
2022-07-26T15:30:49.222Z,0.73
2022-07-26T15:33:19.966Z,0.77
2022-07-26T15:35:49.396Z,1.00
2022-07-26T15:38:17.681Z,0.85
2022-07-26T15:40:45.959Z,0.77
2022-07-26T15:43:23.899Z,1.00
2022-07-26T15:46:11.942Z,0.90
2022-07-26T15:51:10.470Z,1.50
2022-07-26T15:53:43.098Z,0.90
2022-07-26T15:56:14.516Z,0.73
2022-07-26T15:58:42.764Z,0.75
2022-07-26T16:03:42.092Z,0.80
2022-07-26T16:06:10.318Z,0.88
2022-07-26T16:08:58.513Z,0.82
2022-07-26T16:11:27.363Z,0.93
2022-07-26T16:14:01.098Z,1.00
2022-07-26T16:16:31.991Z,0.73
2022-07-26T16:19:00.313Z,0.93
2022-07-26T16:21:31.393Z,1.20
2022-07-26T16:24:06.518Z,1.02
2022-07-26T16:26:38.457Z,1.08
2022-07-26T16:29:06.874Z,1.15
2022-07-26T16:31:36.060Z,1.30
2022-07-26T16:34:04.403Z,1.10
2022-07-26T16:36:32.647Z,1.13
2022-07-26T16:39:00.909Z,1.00
2022-07-26T16:41:32.229Z,1.15
2022-07-26T16:44:00.546Z,1.38
2022-07-26T16:46:53.734Z,1.25
2022-07-26T16:49:22.375Z,0.85
2022-07-26T16:51:50.914Z,0.98
2022-07-26T16:54:19.211Z,1.20
2022-07-26T16:56:47.569Z,0.98
2022-07-26T16:59:16.091Z,1.05
2022-07-26T17:01:47.939Z,1.13
2022-07-26T17:04:17.172Z,0.88
2022-07-26T17:07:01.725Z,0.80
2022-07-26T17:09:34.035Z,1.48
2022-07-26T17:12:06.394Z,0.60
2022-07-26T17:14:35.055Z,1.02
2022-07-26T17:17:04.072Z,0.88
2022-07-26T17:19:32.301Z,1.00
2022-07-26T17:22:00.543Z,1.02
2022-07-26T17:24:28.750Z,1.08
2022-07-26T17:26:57.260Z,0.80
2022-07-26T17:29:25.519Z,0.90
2022-07-26T17:31:54.938Z,1.15
2022-07-26T17:34:23.185Z,0.88
2022-07-26T17:37:02.231Z,0.90
2022-07-26T17:39:52.120Z,0.77
2022-07-26T17:42:21.862Z,1.00
2022-07-26T17:44:50.268Z,0.80
2022-07-26T17:47:27.936Z,0.75
2022-07-26T17:52:51.590Z,0.93
2022-07-26T17:55:20.778Z,0.50
2022-07-26T17:58:13.488Z,0.80
2022-07-26T18:00:41.863Z,0.55
2022-07-26T18:03:10.096Z,0.73
2022-07-26T18:05:41.226Z,1.13
2022-07-26T18:08:09.985Z,0.52
2022-07-26T18:10:38.750Z,0.77
2022-07-26T18:13:07.064Z,0.80
2022-07-26T18:15:35.532Z,0.63
2022-07-26T18:18:03.921Z,0.75
2022-07-26T18:20:32.466Z,0.50
2022-07-26T18:23:00.733Z,0.77
2022-07-26T18:25:29.342Z,0.70
2022-07-26T18:27:57.657Z,0.38
2022-07-26T18:30:25.966Z,0.50
2022-07-26T18:32:54.178Z,0.80
2022-07-26T18:35:24.115Z,0.90
2022-07-26T18:37:52.960Z,0.77
2022-07-26T18:40:25.758Z,0.65
2022-07-26T18:42:54.129Z,0.63
2022-07-26T18:45:22.475Z,0.55
2022-07-26T18:47:50.901Z,0.55
2022-07-26T18:50:19.757Z,0.52
2022-07-26T18:52:48.441Z,0.40
2022-07-26T18:55:16.721Z,0.80
2022-07-26T18:57:45.301Z,0.80
2022-07-26T19:00:20.722Z,0.52
2022-07-26T19:02:51.586Z,0.73
2022-07-26T19:07:51.661Z,0.80
2022-07-26T19:10:22.743Z,0.80
2022-07-26T19:12:54.401Z,0.80
2022-07-26T19:15:22.734Z,1.07
2022-07-26T19:17:50.998Z,0.80
2022-07-26T19:20:19.314Z,0.70
2022-07-26T19:22:48.594Z,0.63
2022-07-26T19:25:17.472Z,0.82
2022-07-26T19:27:45.921Z,0.90
2022-07-26T19:30:14.300Z,0.73
2022-07-26T19:32:42.822Z,0.90
2022-07-26T19:35:11.158Z,0.73
2022-07-26T19:37:39.370Z,1.00
2022-07-26T19:40:09.105Z,0.75
2022-07-26T19:42:39.045Z,0.90
2022-07-26T19:45:32.282Z,0.82
2022-07-26T19:48:07.790Z,1.00
2022-07-26T19:50:36.021Z,0.77
2022-07-26T19:53:04.246Z,0.70
2022-07-26T19:55:32.533Z,0.77
2022-07-26T19:58:00.742Z,0.70
2022-07-26T20:00:29.352Z,0.82
2022-07-26T20:02:57.674Z,1.02
2022-07-26T20:05:25.922Z,0.73
2022-07-26T20:07:54.186Z,0.98
2022-07-26T20:10:22.438Z,0.90
2022-07-26T20:12:50.668Z,0.90
2022-07-26T20:15:18.987Z,1.15
2022-07-26T20:17:47.225Z,1.40
2022-07-26T20:20:17.691Z,0.90
2022-07-26T20:22:45.941Z,0.88
2022-07-26T20:25:21.137Z,0.80
2022-07-26T20:27:51.327Z,0.88
2022-07-26T20:30:20.114Z,1.15
2022-07-26T20:32:48.426Z,0.80
2022-07-26T20:35:16.866Z,1.00
2022-07-26T20:37:45.113Z,0.88
2022-07-26T20:40:15.550Z,0.93
2022-07-26T20:42:47.680Z,1.17
2022-07-26T20:45:43.434Z,0.73
2022-07-26T20:48:11.865Z,0.85
2022-07-26T20:50:40.166Z,0.77
2022-07-26T20:53:09.519Z,0.90
2022-07-26T20:55:37.755Z,0.63
2022-07-26T20:58:06.091Z,1.00
2022-07-26T21:00:34.507Z,0.77
2022-07-26T21:03:02.797Z,1.10
2022-07-26T21:05:36.901Z,0.70
2022-07-26T21:08:05.361Z,0.70
2022-07-26T21:10:33.708Z,0.60
2022-07-26T21:13:01.925Z,1.25
2022-07-26T21:15:31.026Z,1.08
2022-07-26T21:17:59.425Z,0.98
2022-07-26T21:20:27.742Z,1.00
2022-07-26T21:23:08.200Z,1.00
2022-07-26T21:25:44.320Z,0.90
2022-07-26T21:28:17.241Z,1.02
2022-07-26T21:30:46.061Z,1.15
2022-07-26T21:33:15.075Z,0.93
2022-07-26T21:35:43.555Z,0.90
2022-07-26T21:38:12.125Z,0.65
2022-07-26T21:40:40.490Z,1.05
2022-07-26T21:43:08.728Z,0.75
2022-07-26T21:45:37.151Z,0.73
2022-07-26T21:48:05.771Z,0.95
2022-07-26T21:50:33.978Z,0.95
2022-07-26T21:53:02.332Z,0.80
2022-07-26T21:55:30.630Z,0.90
2022-07-26T21:57:58.892Z,0.90
2022-07-26T22:00:30.187Z,0.70
2022-07-26T22:02:58.448Z,0.80
2022-07-26T22:05:35.650Z,0.85
2022-07-26T22:08:09.753Z,0.70
2022-07-26T22:10:44.028Z,0.80
2022-07-26T22:13:14.155Z,0.80
2022-07-26T22:15:43.080Z,0.80
2022-07-26T22:18:11.945Z,1.00
2022-07-26T22:20:40.518Z,1.02
2022-07-26T22:23:11.864Z,0.70
2022-07-26T22:25:40.441Z,0.88
2022-07-26T22:28:10.527Z,0.80
2022-07-26T22:30:39.646Z,0.80
2022-07-26T22:33:08.300Z,1.00
2022-07-26T22:35:36.889Z,1.10
2022-07-26T22:38:23.772Z,0.90
2022-07-26T22:40:52.264Z,0.80
2022-07-26T22:43:20.687Z,0.90
2022-07-26T22:45:48.968Z,1.00
2022-07-26T22:48:17.432Z,1.00
2022-07-26T22:50:45.690Z,0.75
2022-07-26T22:53:13.972Z,0.80
2022-07-26T22:55:42.202Z,0.80
2022-07-26T22:58:12.534Z,1.00
2022-07-26T23:00:40.884Z,0.88
2022-07-26T23:03:15.229Z,0.82
2022-07-26T23:05:50.442Z,0.80
2022-07-26T23:11:08.911Z,0.93
2022-07-26T23:13:37.214Z,0.90
2022-07-26T23:16:05.709Z,0.73
2022-07-26T23:18:34.951Z,0.85
2022-07-26T23:21:04.198Z,0.70
2022-07-26T23:23:32.742Z,1.00
2022-07-26T23:26:01.613Z,1.08
2022-07-26T23:28:38.777Z,1.00
2022-07-26T23:31:11.913Z,0.95
2022-07-26T23:33:52.330Z,0.70
2022-07-26T23:36:25.343Z,0.90
2022-07-26T23:39:20.674Z,1.02
2022-07-26T23:41:49.273Z,0.90
2022-07-26T23:44:17.471Z,0.98
2022-07-26T23:46:45.822Z,1.00
2022-07-26T23:49:14.810Z,0.90
2022-07-26T23:51:43.255Z,1.00
2022-07-26T23:54:11.486Z,0.63
2022-07-26T23:56:39.770Z,0.80
2022-07-26T23:59:08.089Z,0.93
